createdAt,value
2018-11-26T00:00:58.146Z,91.10
2018-11-26T00:03:01.432Z,92.40
2018-11-26T00:05:05.223Z,91.10
2018-11-26T00:07:08.576Z,91.10
2018-11-26T00:09:17.586Z,91.20
2018-11-26T00:11:37.356Z,93.10
2018-11-26T00:13:40.599Z,92.80
2018-11-26T00:15:44.367Z,91.30
2018-11-26T00:17:48.312Z,91.30
2018-11-26T00:19:52.648Z,94.20
2018-11-26T00:21:56.100Z,91.20
2018-11-26T00:24:00.097Z,91.00
2018-11-26T00:26:04.646Z,91.20
2018-11-26T00:28:07.894Z,91.30
2018-11-26T00:30:12.339Z,91.20
2018-11-26T00:32:16.379Z,91.30
2018-11-26T00:34:19.994Z,91.40
2018-11-26T00:36:23.736Z,91.80
2018-11-26T00:40:30.884Z,91.50
2018-11-26T00:42:34.166Z,91.00
2018-11-26T00:44:37.407Z,92.30
2018-11-26T00:46:40.662Z,91.10
2018-11-26T00:48:45.285Z,90.90
2018-11-26T00:50:50.599Z,91.00
2018-11-26T00:52:54.059Z,90.70
2018-11-26T00:54:57.654Z,93.00
2018-11-26T00:57:00.881Z,92.90
2018-11-26T00:59:04.166Z,91.10
2018-11-26T01:01:08.787Z,90.90
2018-11-26T01:03:12.079Z,91.00
2018-11-26T01:05:36.898Z,91.00
2018-11-26T01:07:40.154Z,91.80
2018-11-26T01:09:43.708Z,90.50
2018-11-26T01:11:49.103Z,90.80
2018-11-26T01:13:52.570Z,90.90
2018-11-26T01:15:56.060Z,90.80
2018-11-26T01:17:59.298Z,90.70
2018-11-26T01:20:03.778Z,93.80
2018-11-26T01:22:07.906Z,90.90
2018-11-26T01:24:11.204Z,91.00
2018-11-26T01:26:15.019Z,91.00
2018-11-26T01:28:18.622Z,93.60
2018-11-26T01:30:22.049Z,90.50
2018-11-26T01:32:27.835Z,92.60
2018-11-26T01:34:31.159Z,90.80
2018-11-26T01:36:34.398Z,91.40
2018-11-26T01:38:38.835Z,91.10
2018-11-26T01:40:47.511Z,90.90
2018-11-26T01:42:51.866Z,90.80
2018-11-26T01:44:55.353Z,90.80
2018-11-26T01:46:58.544Z,91.50
2018-11-26T01:49:01.779Z,90.00
2018-11-26T01:51:05.663Z,90.20
2018-11-26T01:53:12.454Z,90.00
2018-11-26T01:55:16.374Z,90.60
2018-11-26T01:57:20.932Z,89.90
2018-11-26T01:59:24.243Z,90.20
2018-11-26T02:01:27.826Z,90.30
2018-11-26T02:03:31.923Z,89.40
2018-11-26T02:05:35.312Z,91.80
2018-11-26T02:07:38.594Z,88.90
2018-11-26T02:09:42.535Z,90.10
2018-11-26T02:11:46.846Z,90.00
2018-11-26T02:13:52.080Z,89.60
2018-11-26T02:15:56.614Z,89.10
2018-11-26T02:17:59.858Z,92.10
2018-11-26T02:20:03.367Z,92.10
2018-11-26T02:22:06.894Z,89.10
2018-11-26T02:24:11.066Z,89.80
2018-11-26T02:26:14.730Z,90.90
2018-11-26T02:28:18.659Z,90.00
2018-11-26T02:30:22.093Z,89.30
2018-11-26T02:32:25.449Z,90.00
2018-11-26T02:34:30.891Z,91.10
2018-11-26T02:36:34.130Z,89.50
2018-11-26T02:38:37.382Z,89.20
2018-11-26T02:40:40.641Z,89.70
2018-11-26T02:42:43.989Z,89.30
2018-11-26T02:44:48.485Z,89.10
2018-11-26T02:46:52.946Z,89.20
2018-11-26T02:48:56.412Z,90.90
2018-11-26T02:50:59.690Z,90.80
2018-11-26T02:55:09.690Z,88.70
2018-11-26T02:57:12.934Z,89.40
2018-11-26T02:59:17.554Z,89.20
2018-11-26T03:01:23.770Z,89.80
2018-11-26T03:03:27.175Z,90.30
2018-11-26T03:05:30.611Z,89.70
2018-11-26T03:07:33.860Z,88.80
2018-11-26T03:09:37.098Z,88.90
2018-11-26T03:13:46.195Z,88.90
2018-11-26T03:15:49.701Z,89.60
2018-11-26T03:17:53.126Z,89.30
2018-11-26T03:19:57.539Z,92.00
2018-11-26T03:22:02.883Z,88.60
2018-11-26T03:24:06.271Z,88.60
2018-11-26T03:26:09.544Z,88.80
2018-11-26T03:28:12.799Z,88.50
2018-11-26T03:30:19.047Z,88.40
2018-11-26T03:32:23.436Z,88.50
2018-11-26T03:34:26.845Z,89.00
2018-11-26T03:36:30.087Z,89.00
2018-11-26T03:38:48.577Z,88.80
2018-11-26T03:40:51.986Z,92.80
2018-11-26T03:42:58.007Z,88.30
2018-11-26T03:45:01.262Z,91.00
2018-11-26T03:47:04.534Z,88.70
2018-11-26T03:49:07.826Z,89.40
2018-11-26T03:51:11.088Z,89.20
2018-11-26T03:53:15.341Z,88.70
2018-11-26T03:55:19.178Z,89.20
2018-11-26T03:57:23.679Z,91.20
2018-11-26T03:59:27.129Z,89.90
2018-11-26T04:01:31.855Z,92.90
2018-11-26T04:03:37.018Z,88.70
2018-11-26T04:07:43.251Z,89.40
2018-11-26T04:09:47.138Z,88.40
2018-11-26T04:11:50.782Z,89.50
2018-11-26T04:13:55.063Z,89.30
2018-11-26T04:15:59.125Z,89.50
2018-11-26T04:18:02.398Z,89.20
2018-11-26T04:20:06.274Z,89.10
2018-11-26T04:22:09.787Z,89.70
2018-11-26T04:24:17.275Z,89.40
2018-11-26T04:26:20.750Z,90.10
2018-11-26T04:28:24.335Z,90.10
2018-11-26T04:30:27.698Z,89.00
2018-11-26T04:32:30.959Z,89.70
2018-11-26T04:34:35.518Z,93.50
2018-11-26T04:36:38.786Z,90.40
2018-11-26T04:38:42.027Z,90.00
2018-11-26T04:42:49.212Z,89.80
2018-11-26T04:44:54.578Z,89.70
2018-11-26T04:46:57.954Z,92.10
2018-11-26T04:49:01.186Z,88.80
2018-11-26T04:51:04.524Z,89.50
2018-11-26T04:53:08.298Z,88.90
2018-11-26T04:55:13.316Z,91.40
2018-11-26T04:57:17.335Z,90.10
2018-11-26T04:59:20.788Z,90.10
2018-11-26T05:01:24.178Z,93.50
2018-11-26T05:03:28.408Z,90.00
2018-11-26T05:05:32.651Z,92.20
2018-11-26T05:07:35.898Z,89.70
2018-11-26T05:09:39.131Z,90.00
2018-11-26T05:11:42.845Z,90.10
2018-11-26T05:13:46.926Z,90.40
2018-11-26T05:15:51.246Z,89.70
2018-11-26T05:17:54.767Z,90.30
2018-11-26T05:19:58.149Z,93.30
2018-11-26T05:22:01.393Z,92.30
2018-11-26T05:24:04.634Z,90.20
2018-11-26T05:26:10.223Z,90.20
2018-11-26T05:30:18.237Z,90.20
2018-11-26T05:32:21.644Z,90.20
2018-11-26T05:34:25.186Z,90.10
2018-11-26T05:36:29.583Z,90.30
2018-11-26T05:38:32.859Z,94.20
2018-11-26T05:40:36.468Z,91.40
2018-11-26T05:42:39.908Z,90.00
2018-11-26T05:44:43.159Z,90.50
2018-11-26T05:46:50.639Z,90.50
2018-11-26T05:48:55.190Z,91.60
2018-11-26T05:50:58.578Z,90.10
2018-11-26T05:53:01.820Z,90.90
2018-11-26T05:55:05.215Z,90.60
2018-11-26T05:57:09.423Z,90.40
2018-11-26T05:59:12.678Z,90.40
2018-11-26T06:01:15.975Z,90.40
2018-11-26T06:03:20.019Z,90.40
2018-11-26T06:07:28.819Z,90.20
2018-11-26T06:09:32.059Z,90.10
2018-11-26T06:11:35.424Z,90.60
2018-11-26T06:13:38.676Z,90.50
2018-11-26T06:15:41.926Z,90.40
2018-11-26T06:17:46.120Z,90.20
2018-11-26T06:19:51.366Z,90.10
2018-11-26T06:21:54.719Z,90.50
2018-11-26T06:23:58.057Z,91.70
2018-11-26T06:26:01.372Z,90.00
2018-11-26T06:28:06.268Z,90.50
2018-11-26T06:30:11.339Z,90.40
2018-11-26T06:32:14.578Z,90.50
2018-11-26T06:34:18.589Z,90.60
2018-11-26T06:36:22.155Z,90.40
2018-11-26T06:38:27.674Z,90.70
2018-11-26T06:40:30.971Z,90.60
2018-11-26T06:42:34.194Z,90.50
2018-11-26T06:44:37.682Z,92.40
2018-11-26T06:46:40.931Z,92.00
2018-11-26T06:48:46.063Z,90.70
2018-11-26T06:50:50.346Z,90.70
2018-11-26T06:52:53.682Z,90.60
2018-11-26T06:54:56.959Z,91.60
2018-11-26T06:57:01.224Z,90.60
2018-11-26T06:59:05.480Z,90.60
2018-11-26T07:01:08.724Z,90.80
2018-11-26T07:03:12.318Z,90.80
2018-11-26T07:05:19.031Z,90.60
2018-11-26T07:07:23.442Z,90.90
2018-11-26T07:09:29.509Z,90.80
2018-11-26T07:11:32.754Z,93.10
2018-11-26T07:13:36.007Z,91.00
2018-11-26T07:15:40.164Z,91.00
2018-11-26T07:17:43.798Z,90.40
2018-11-26T07:19:48.385Z,90.60
2018-11-26T07:21:52.478Z,90.50
2018-11-26T07:23:55.999Z,90.60
2018-11-26T07:25:59.310Z,90.30
2018-11-26T07:28:04.681Z,90.40
2018-11-26T07:30:15.015Z,90.30
2018-11-26T07:32:18.736Z,90.10
2018-11-26T07:34:22.650Z,90.20
2018-11-26T07:36:26.303Z,90.40
2018-11-26T07:38:29.741Z,88.80
2018-11-26T07:40:34.243Z,89.30
2018-11-26T07:42:37.574Z,89.40
2018-11-26T07:44:40.803Z,89.40
2018-11-26T07:46:44.059Z,92.10
2018-11-26T07:48:47.351Z,89.10
2018-11-26T07:50:54.839Z,89.10
2018-11-26T07:52:58.482Z,88.30
2018-11-26T07:55:01.766Z,88.10
2018-11-26T07:57:05.208Z,87.90
2018-11-26T07:59:08.532Z,87.90
2018-11-26T08:01:12.726Z,88.10
2018-11-26T08:03:16.022Z,87.10
2018-11-26T08:05:23.870Z,87.30
2018-11-26T08:07:28.302Z,86.70
2018-11-26T08:09:31.565Z,90.90
2018-11-26T08:11:36.996Z,86.70
2018-11-26T08:13:40.262Z,86.70
2018-11-26T08:15:43.499Z,86.20
2018-11-26T08:17:46.763Z,85.60
2018-11-26T08:19:51.580Z,85.80
2018-11-26T08:21:55.650Z,89.50
2018-11-26T08:23:59.007Z,90.40
2018-11-26T08:26:02.298Z,90.80
2018-11-26T08:30:19.859Z,84.40
2018-11-26T08:32:27.757Z,84.70
2018-11-26T08:34:30.122Z,84.50
2018-11-26T08:36:38.575Z,84.40
2018-11-26T08:38:45.771Z,84.70
2018-11-26T08:40:50.137Z,83.60
2018-11-26T08:43:13.421Z,84.50
2018-11-26T08:45:25.177Z,84.60
2018-11-26T08:47:33.906Z,85.40
2018-11-26T08:49:37.170Z,84.90
2018-11-26T08:51:40.438Z,83.70
2018-11-26T08:53:45.646Z,84.50
2018-11-26T08:55:49.215Z,84.40
2018-11-26T08:57:52.967Z,84.50
2018-11-26T08:59:56.592Z,84.40
2018-11-26T09:02:00.834Z,84.30
2018-11-26T09:04:10.142Z,83.90
2018-11-26T09:06:13.358Z,84.20
2018-11-26T09:08:16.726Z,83.70
2018-11-26T09:10:20.606Z,83.40
2018-11-26T09:12:24.000Z,83.60
2018-11-26T09:14:31.496Z,83.70
2018-11-26T09:16:35.181Z,85.40
2018-11-26T09:18:38.400Z,84.70
2018-11-26T09:20:42.114Z,88.50
2018-11-26T09:22:46.346Z,83.70
2018-11-26T09:24:51.470Z,83.20
2018-11-26T09:26:55.396Z,83.90
2018-11-26T09:28:58.750Z,83.30
2018-11-26T09:31:02.109Z,83.60
2018-11-26T09:33:06.262Z,83.40
2018-11-26T09:35:15.867Z,90.00
2018-11-26T09:37:19.844Z,82.60
2018-11-26T09:39:24.766Z,82.50
2018-11-26T09:41:28.167Z,81.90
2018-11-26T09:43:31.791Z,86.80
2018-11-26T09:45:40.441Z,90.60
2018-11-26T09:47:39.318Z,82.00
2018-11-26T09:49:42.577Z,81.50
2018-11-26T09:51:45.836Z,82.00
2018-11-26T09:53:50.222Z,81.20
2018-11-26T09:55:57.300Z,81.00
2018-11-26T09:58:01.307Z,89.50
2018-11-26T10:00:09.911Z,84.20
2018-11-26T10:02:13.227Z,85.70
2018-11-26T10:04:16.472Z,80.40
2018-11-26T10:06:21.642Z,79.80
2018-11-26T10:08:25.288Z,79.90
2018-11-26T10:10:28.646Z,78.60
2018-11-26T10:12:32.118Z,78.80
2018-11-26T10:14:35.354Z,79.20
2018-11-26T10:16:41.888Z,76.90
2018-11-26T10:18:45.133Z,75.60
2018-11-26T10:20:48.517Z,75.50
2018-11-26T10:22:53.502Z,74.60
2018-11-26T10:24:56.957Z,74.50
2018-11-26T10:27:01.183Z,73.90
2018-11-26T10:29:04.451Z,74.60
2018-11-26T10:33:14.976Z,72.30
2018-11-26T10:35:16.694Z,72.50
2018-11-26T10:37:23.377Z,73.10
2018-11-26T10:39:26.814Z,73.40
2018-11-26T10:41:30.375Z,77.70
2018-11-26T10:43:33.670Z,72.50
2018-11-26T10:45:37.423Z,75.90
2018-11-26T10:47:42.009Z,72.50
2018-11-26T10:49:45.260Z,71.10
2018-11-26T10:51:48.498Z,71.70
2018-11-26T10:53:53.166Z,70.90
2018-11-26T10:55:56.738Z,71.60
2018-11-26T10:58:01.502Z,69.10
2018-11-26T11:00:07.164Z,67.60
2018-11-26T11:02:15.650Z,70.20
2018-11-26T11:04:18.936Z,67.30
2018-11-26T11:06:23.279Z,66.70
2018-11-26T11:08:28.083Z,65.60
2018-11-26T11:10:32.726Z,71.30
2018-11-26T11:12:37.178Z,65.70
2018-11-26T11:14:40.394Z,66.20
2018-11-26T11:16:43.671Z,67.20
2018-11-26T11:18:48.766Z,67.80
2018-11-26T11:20:53.220Z,67.00
2018-11-26T11:22:56.754Z,67.90
2018-11-26T11:25:00.187Z,67.20
2018-11-26T11:27:03.487Z,67.60
2018-11-26T11:29:07.624Z,72.80
2018-11-26T11:31:11.220Z,68.80
2018-11-26T11:35:17.438Z,67.60
2018-11-26T11:37:20.841Z,67.60
2018-11-26T11:39:28.233Z,69.30
2018-11-26T11:41:34.420Z,69.10
2018-11-26T11:43:34.715Z,68.60
2018-11-26T11:45:37.956Z,69.10
2018-11-26T11:47:41.408Z,69.50
2018-11-26T11:49:46.496Z,69.60
2018-11-26T11:51:49.744Z,69.60
2018-11-26T11:53:52.980Z,69.70
2018-11-26T11:55:56.272Z,68.60
2018-11-26T11:57:59.517Z,67.90
2018-11-26T12:00:05.261Z,69.70
2018-11-26T12:02:15.972Z,70.80
2018-11-26T12:04:15.343Z,70.20
2018-11-26T12:06:18.623Z,69.20
2018-11-26T12:08:22.961Z,69.10
2018-11-26T12:10:27.429Z,70.40
2018-11-26T12:12:30.688Z,70.30
2018-11-26T12:14:34.020Z,71.10
2018-11-26T12:16:37.252Z,69.20
2018-11-26T12:18:40.480Z,69.00
2018-11-26T12:20:45.303Z,69.50
2018-11-26T12:22:48.588Z,70.00
2018-11-26T12:24:51.844Z,69.70
2018-11-26T12:26:55.639Z,69.80
2018-11-26T12:28:58.887Z,69.70
2018-11-26T12:31:03.115Z,68.90
2018-11-26T12:33:06.529Z,70.20
2018-11-26T12:35:09.851Z,70.40
2018-11-26T12:37:13.128Z,70.40
2018-11-26T12:39:16.415Z,70.50
2018-11-26T12:41:21.889Z,71.60
2018-11-26T12:43:25.131Z,71.90
2018-11-26T12:45:30.507Z,71.10
2018-11-26T12:47:33.780Z,71.70
2018-11-26T12:49:37.034Z,71.40
2018-11-26T12:51:41.584Z,72.30
2018-11-26T12:53:44.812Z,72.40
2018-11-26T12:55:48.060Z,71.50
2018-11-26T12:57:52.480Z,71.10
2018-11-26T12:59:55.775Z,71.80
2018-11-26T13:02:00.643Z,71.30
2018-11-26T13:04:03.944Z,72.00
2018-11-26T13:06:07.252Z,71.20
2018-11-26T13:08:10.558Z,72.30
2018-11-26T13:10:14.785Z,72.30
2018-11-26T13:12:19.352Z,71.00
2018-11-26T13:14:22.720Z,72.30
2018-11-26T13:16:27.197Z,73.20
2018-11-26T13:18:30.471Z,73.20
2018-11-26T13:20:33.816Z,72.90
2018-11-26T13:22:39.248Z,72.60
2018-11-26T13:24:42.497Z,71.70
2018-11-26T13:26:45.798Z,72.70
2018-11-26T13:28:49.032Z,73.10
2018-11-26T13:30:53.987Z,71.70
2018-11-26T13:32:59.423Z,71.30
2018-11-26T13:35:03.860Z,72.20
2018-11-26T13:37:07.400Z,71.40
2018-11-26T13:39:10.644Z,71.50
2018-11-26T13:41:14.301Z,72.50
2018-11-26T13:43:19.384Z,72.50
2018-11-26T13:45:24.981Z,72.40
2018-11-26T13:47:28.576Z,73.50
2018-11-26T13:49:31.799Z,71.70
2018-11-26T13:51:35.076Z,72.40
2018-11-26T13:53:39.783Z,73.20
2018-11-26T13:55:43.063Z,72.10
2018-11-26T13:57:46.327Z,72.90
2018-11-26T13:59:49.955Z,71.70
2018-11-26T14:01:53.237Z,74.20
2018-11-26T14:03:58.524Z,74.40
2018-11-26T14:06:01.888Z,74.40
2018-11-26T14:08:05.223Z,72.40
2018-11-26T14:10:10.981Z,72.90
2018-11-26T14:12:15.738Z,72.60
2018-11-26T14:14:20.115Z,71.80
2018-11-26T14:16:23.371Z,72.80
2018-11-26T14:18:26.629Z,73.60
2018-11-26T14:20:29.872Z,73.50
2018-11-26T14:22:33.169Z,74.60
2018-11-26T14:24:38.560Z,73.20
2018-11-26T14:26:41.788Z,73.50
2018-11-26T14:28:45.097Z,73.60
2018-11-26T14:30:49.579Z,74.30
2018-11-26T14:32:53.204Z,74.80
2018-11-26T14:34:57.329Z,74.70
2018-11-26T14:37:00.825Z,75.20
2018-11-26T14:39:05.763Z,75.10
2018-11-26T14:41:09.407Z,75.40
2018-11-26T14:43:12.740Z,75.30
2018-11-26T14:45:17.936Z,76.10
2018-11-26T14:47:21.184Z,76.40
2018-11-26T14:49:24.961Z,75.90
2018-11-26T14:53:32.057Z,74.80
2018-11-26T14:55:38.110Z,75.60
2018-11-26T14:57:41.341Z,76.00
2018-11-26T14:59:44.608Z,76.20
2018-11-26T15:01:48.567Z,76.20
2018-11-26T15:05:56.670Z,76.40
2018-11-26T15:08:00.832Z,76.40
2018-11-26T15:10:04.785Z,75.80
2018-11-26T15:12:09.807Z,76.40
2018-11-26T15:14:13.076Z,76.50
2018-11-26T15:16:17.180Z,76.90
2018-11-26T15:18:21.771Z,76.20
2018-11-26T15:20:28.769Z,75.90
2018-11-26T15:22:32.568Z,76.90
2018-11-26T15:24:35.791Z,77.00
2018-11-26T15:26:41.751Z,77.10
2018-11-26T15:30:48.243Z,76.90
2018-11-26T15:32:51.581Z,77.10
2018-11-26T15:34:54.848Z,77.30
2018-11-26T15:36:59.119Z,77.20
2018-11-26T15:39:02.788Z,77.50
2018-11-26T15:41:06.056Z,80.00
2018-11-26T15:43:09.283Z,78.40
2018-11-26T15:45:14.640Z,78.10
2018-11-26T15:47:19.373Z,78.10
2018-11-26T15:49:22.724Z,77.90
2018-11-26T15:51:26.607Z,78.00
2018-11-26T15:53:30.228Z,77.90
2018-11-26T15:55:33.886Z,77.60
2018-11-26T15:57:38.849Z,78.20
2018-11-26T15:59:42.483Z,78.30
2018-11-26T16:01:46.099Z,78.40
2018-11-26T16:03:49.744Z,78.00
2018-11-26T16:05:53.376Z,78.20
2018-11-26T16:08:04.484Z,78.00
2018-11-26T16:10:10.197Z,78.50
2018-11-26T16:12:14.466Z,77.70
2018-11-26T16:14:17.518Z,78.90
2018-11-26T16:18:27.031Z,77.50
2018-11-26T16:20:30.655Z,77.50
2018-11-26T16:22:34.304Z,78.00
2018-11-26T16:24:37.895Z,78.20
2018-11-26T16:26:41.515Z,77.80
2018-11-26T16:28:47.494Z,77.90
2018-11-26T16:30:51.194Z,78.00
2018-11-26T16:32:57.123Z,78.50
2018-11-26T16:35:01.234Z,78.00
2018-11-26T16:37:05.019Z,77.90
2018-11-26T16:39:10.322Z,78.10
2018-11-26T16:41:13.965Z,78.10
2018-11-26T16:43:17.632Z,77.80
2018-11-26T16:45:23.572Z,77.50
2018-11-26T16:47:27.228Z,78.50
2018-11-26T16:49:34.514Z,77.30
2018-11-26T16:51:38.226Z,79.20
2018-11-26T16:53:42.860Z,79.30
2018-11-26T16:55:46.560Z,79.30
2018-11-26T16:57:50.179Z,80.00
2018-11-26T16:59:55.315Z,80.10
2018-11-26T17:01:58.962Z,80.90
2018-11-26T17:04:02.635Z,80.40
2018-11-26T17:06:06.759Z,79.60
2018-11-26T17:08:11.531Z,80.40
2018-11-26T17:10:19.111Z,80.50
2018-11-26T17:12:24.128Z,80.70
2018-11-26T17:14:27.763Z,81.00
2018-11-26T17:16:31.587Z,81.20
2018-11-26T17:18:35.231Z,80.40
2018-11-26T17:20:39.792Z,80.50
2018-11-26T17:22:43.539Z,80.90
2018-11-26T17:24:47.186Z,80.10
2018-11-26T17:26:50.882Z,80.30
2018-11-26T17:28:54.498Z,79.20
2018-11-26T17:31:00.459Z,79.20
2018-11-26T17:33:04.959Z,80.40
2018-11-26T17:35:09.864Z,79.80
2018-11-26T17:37:13.860Z,78.40
2018-11-26T17:39:17.491Z,78.40
2018-11-26T17:43:25.359Z,79.30
2018-11-26T17:45:29.084Z,79.00
2018-11-26T17:47:32.712Z,77.90
2018-11-26T17:49:37.478Z,78.00
2018-11-26T17:51:44.615Z,78.20
2018-11-26T17:53:48.223Z,77.40
2018-11-26T17:55:56.300Z,78.10
2018-11-26T17:57:59.926Z,78.90
2018-11-26T18:02:08.147Z,80.30
2018-11-26T18:04:11.778Z,79.40
2018-11-26T18:08:19.220Z,79.20
2018-11-26T18:10:22.954Z,79.60
2018-11-26T18:12:30.174Z,79.90
2018-11-26T18:14:33.851Z,79.20
2018-11-26T18:16:37.617Z,79.10
2018-11-26T18:18:41.239Z,79.60
2018-11-26T18:20:45.386Z,79.80
2018-11-26T18:24:54.050Z,79.20
2018-11-26T18:26:58.235Z,79.10
2018-11-26T18:29:01.903Z,79.30
2018-11-26T18:31:06.681Z,79.00
2018-11-26T18:33:12.158Z,80.40
2018-11-26T18:35:15.791Z,80.90
2018-11-26T18:37:19.415Z,79.40
2018-11-26T18:39:23.098Z,80.80
2018-11-26T18:41:26.775Z,79.80
2018-11-26T18:43:31.398Z,79.60
2018-11-26T18:45:36.047Z,80.40
2018-11-26T18:47:39.731Z,80.80
2018-11-26T18:49:44.203Z,81.60
2018-11-26T18:51:48.327Z,80.40
2018-11-26T18:53:54.062Z,80.50
2018-11-26T18:55:57.770Z,80.70
2018-11-26T18:58:01.430Z,80.30
2018-11-26T19:00:16.411Z,80.30
2018-11-26T19:02:20.068Z,80.90
2018-11-26T19:04:25.635Z,80.20
2018-11-26T19:06:29.339Z,81.40
2018-11-26T19:08:33.012Z,80.90
2018-11-26T19:10:37.728Z,80.40
2018-11-26T19:12:41.845Z,80.90
2018-11-26T19:16:53.785Z,81.40
2018-11-26T19:18:57.480Z,80.50
2018-11-26T19:21:01.139Z,81.00
2018-11-26T19:25:14.991Z,81.20
2018-11-26T19:27:18.640Z,81.50
2018-11-26T19:29:22.480Z,81.50
2018-11-26T19:33:29.565Z,81.20
2018-11-26T19:35:37.331Z,82.00
2018-11-26T19:37:41.072Z,82.10
2018-11-26T19:39:44.772Z,82.50
2018-11-26T19:41:48.508Z,81.80
2018-11-26T19:43:52.208Z,82.20
2018-11-26T19:45:56.817Z,81.70
2018-11-26T19:48:00.691Z,81.50
2018-11-26T19:50:04.401Z,81.60
2018-11-26T19:52:08.205Z,81.30
2018-11-26T19:54:12.028Z,81.30
2018-11-26T19:56:17.071Z,81.60
2018-11-26T20:00:26.248Z,82.30
2018-11-26T20:02:29.887Z,82.20
2018-11-26T20:04:41.373Z,82.00
2018-11-26T20:06:46.275Z,82.10
2018-11-26T20:08:54.668Z,82.20
2018-11-26T20:10:58.316Z,83.10
2018-11-26T20:13:02.004Z,82.70
2018-11-26T20:15:11.448Z,82.70
2018-11-26T20:17:16.679Z,82.30
2018-11-26T20:19:20.443Z,82.20
2018-11-26T20:21:24.119Z,82.80
2018-11-26T20:23:27.789Z,82.30
2018-11-26T20:25:32.698Z,82.50
2018-11-26T20:27:37.239Z,82.50
2018-11-26T20:29:40.875Z,83.40
2018-11-26T20:31:44.605Z,82.30
2018-11-26T20:33:48.216Z,81.70
2018-11-26T20:37:57.131Z,81.60
2018-11-26T20:42:04.083Z,82.50
2018-11-26T20:44:08.315Z,82.10
2018-11-26T20:50:21.892Z,81.70
2018-11-26T20:54:28.823Z,81.30
2018-11-26T20:56:33.811Z,80.80
2018-11-26T21:02:47.844Z,82.40
2018-11-26T21:04:51.588Z,81.50
2018-11-26T21:06:55.296Z,81.40
2018-11-26T21:09:00.314Z,81.40
2018-11-26T21:11:04.099Z,81.40
2018-11-26T21:13:08.348Z,81.30
2018-11-26T21:15:20.696Z,82.10
2018-11-26T21:17:27.739Z,82.50
2018-11-26T21:19:32.571Z,82.20
2018-11-26T21:21:36.538Z,81.50
2018-11-26T21:23:40.249Z,82.00
2018-11-26T21:25:44.083Z,82.90
2018-11-26T21:27:48.975Z,81.50
2018-11-26T21:29:53.717Z,81.30
2018-11-26T21:31:57.406Z,81.80
2018-11-26T21:34:01.156Z,81.70
2018-11-26T21:36:05.030Z,81.10
2018-11-26T21:38:10.163Z,83.00
2018-11-26T21:40:20.354Z,82.30
2018-11-26T21:42:20.396Z,82.30
2018-11-26T21:44:24.199Z,82.60
2018-11-26T21:46:27.895Z,81.90
2018-11-26T21:50:36.170Z,83.00
2018-11-26T21:52:39.947Z,81.90
2018-11-26T21:54:43.770Z,82.80
2018-11-26T21:56:47.624Z,82.60
2018-11-26T21:58:51.906Z,83.10
2018-11-26T22:00:59.048Z,83.10
2018-11-26T22:03:09.584Z,83.00
2018-11-26T22:05:13.866Z,82.40
2018-11-26T22:07:17.604Z,81.50
2018-11-26T22:09:21.386Z,82.00
2018-11-26T22:11:30.336Z,81.70
2018-11-26T22:13:30.385Z,82.90
2018-11-26T22:15:34.148Z,81.60
2018-11-26T22:19:43.615Z,83.20
2018-11-26T22:21:48.235Z,82.30
2018-11-26T22:23:54.396Z,83.10
2018-11-26T22:25:58.090Z,82.90
2018-11-26T22:28:01.856Z,83.10
2018-11-26T22:30:13.410Z,82.90
2018-11-26T22:32:18.002Z,83.40
2018-11-26T22:34:21.790Z,82.90
2018-11-26T22:36:25.862Z,82.40
2018-11-26T22:38:29.608Z,83.20
2018-11-26T22:40:33.310Z,83.30
2018-11-26T22:44:42.710Z,83.00
2018-11-26T22:46:46.472Z,83.70
2018-11-26T22:48:50.139Z,83.00
2018-11-26T22:50:53.758Z,83.20
2018-11-26T22:55:02.038Z,82.60
2018-11-26T22:57:06.178Z,82.50
2018-11-26T22:59:09.835Z,82.60
2018-11-26T23:01:13.512Z,82.40
2018-11-26T23:05:22.502Z,83.10
2018-11-26T23:07:26.234Z,83.30
2018-11-26T23:09:29.890Z,83.50
2018-11-26T23:11:33.471Z,83.80
2018-11-26T23:13:38.254Z,83.30
2018-11-26T23:15:41.922Z,83.10
2018-11-26T23:17:46.716Z,82.90
2018-11-26T23:21:54.278Z,83.30
2018-11-26T23:23:59.256Z,83.50
2018-11-26T23:26:03.595Z,83.30
2018-11-26T23:28:07.289Z,83.30
2018-11-26T23:30:16.742Z,83.80
2018-11-26T23:32:20.476Z,83.40
2018-11-26T23:34:25.032Z,82.60
2018-11-26T23:36:28.666Z,83.20
2018-11-26T23:38:33.311Z,82.40
2018-11-26T23:40:36.958Z,84.10
2018-11-26T23:42:40.620Z,84.20
2018-11-26T23:44:46.811Z,84.20
2018-11-26T23:46:50.459Z,84.50
2018-11-26T23:48:54.152Z,84.50
2018-11-26T23:50:57.829Z,83.70
2018-11-26T23:53:01.463Z,85.00
2018-11-26T23:57:10.887Z,85.10
2018-11-26T23:59:14.559Z,85.30
